KDLL

Baraboo-Wisconsin Dells Regional Airport

Baraboo, Wisconsin, USA
METAR KDLL 202015Z AUTO 05003KT 5SM -RA BKN023 BKN060 OVC120 22/20 A2987 RMK AO2 P0001 T02210198
Observed Flight Rules
Aug-20 @ 20:15 UTC (15 minutes ago) Marginal Visual Flight Rules
Wind Visibility Clouds Conditions
50° at 3 knots 5 miles
  • Broken at 2,300' AGL
  • Broken at 6,000' AGL
  • Overcast at 12,000' AGL
  • Light Rain
Temperatures Readings Precipitation
Current 22°C / 72°F
Dewpoint 20°C / 68°F
Humidity 88%
Altimeter 29.87" Hg
Pressure 1012 hPa
Elevation 299
Current Rain 0.01
METAR KDLL 202015Z AUTO 05003KT 5SM -RA BKN023 BKN060 OVC120 22/20 A2987 RMK AO2 P0001 T02210198
Observed Flight Rules
Aug-20 @ 20:15 UTC
(15 minutes ago)
MVFR
Wind Visibility
50° at 3 knots 5 miles
Clouds
  • Broken at 2,300' AGL
  • Broken at 6,000' AGL
  • Overcast at 12,000' AGL
Conditions
  • Light Rain
Temperature Dewpoint
22°C / 72°F 20°C / 68°F
Humidity Altimeter Pressure
88% 29.87" Hg 1012 hPa
Current Rain
0.01